createdAt,value
2023-02-18T00:00:23.073Z,12.27
2023-02-18T00:01:24.968Z,12.28
2023-02-18T00:02:26.198Z,12.29
2023-02-18T00:03:28.181Z,12.27
2023-02-18T00:04:29.677Z,12.26
2023-02-18T00:05:30.934Z,12.21
2023-02-18T00:06:33.816Z,12.20
2023-02-18T00:07:35.849Z,12.26
2023-02-18T00:08:37.130Z,12.25
2023-02-18T00:09:38.724Z,12.23
2023-02-18T00:10:41.284Z,12.19
2023-02-18T00:11:42.487Z,12.23
2023-02-18T00:12:43.780Z,12.23
2023-02-18T00:13:49.610Z,12.23
2023-02-18T00:14:50.919Z,12.19
2023-02-18T00:15:52.204Z,12.19
2023-02-18T00:16:53.514Z,12.18
2023-02-18T00:17:54.769Z,12.17
2023-02-18T00:18:57.057Z,12.17
2023-02-18T00:19:58.357Z,12.17
2023-02-18T00:20:59.641Z,12.15
2023-02-18T00:22:00.845Z,12.11
2023-02-18T00:23:02.655Z,12.10
2023-02-18T00:24:04.943Z,12.05
2023-02-18T00:25:06.323Z,12.08
2023-02-18T00:26:09.396Z,12.10
2023-02-18T00:27:11.544Z,12.13
2023-02-18T00:28:12.795Z,12.11
2023-02-18T00:29:14.125Z,12.10
2023-02-18T00:30:16.248Z,12.08
2023-02-18T00:31:18.922Z,12.06
2023-02-18T00:32:20.303Z,12.11
2023-02-18T00:33:21.569Z,12.11
2023-02-18T00:34:22.880Z,12.16
2023-02-18T00:35:24.102Z,12.17
2023-02-18T00:36:26.144Z,12.14
2023-02-18T00:37:27.431Z,12.09
2023-02-18T00:38:28.844Z,12.06
2023-02-18T00:39:30.173Z,12.11
2023-02-18T00:40:31.450Z,12.11
2023-02-18T00:41:33.058Z,12.07
2023-02-18T00:42:34.332Z,12.05
2023-02-18T00:43:35.566Z,12.02
2023-02-18T00:44:37.153Z,11.99
2023-02-18T00:45:38.410Z,11.96
2023-02-18T00:46:39.740Z,11.97
2023-02-18T00:47:41.265Z,12.01
2023-02-18T00:48:42.594Z,12.03
2023-02-18T00:49:44.479Z,12.02
2023-02-18T00:50:46.066Z,12.07
2023-02-18T00:51:47.360Z,12.11
2023-02-18T00:52:48.715Z,12.11
2023-02-18T00:53:49.958Z,12.11
2023-02-18T00:54:51.219Z,12.07
2023-02-18T00:55:52.482Z,12.04
2023-02-18T00:56:53.710Z,12.01
2023-02-18T00:57:54.995Z,12.02
2023-02-18T00:58:56.181Z,12.00
2023-02-18T00:59:57.624Z,12.01
2023-02-18T01:00:58.853Z,12.01
2023-02-18T01:02:00.137Z,11.99
2023-02-18T01:03:01.642Z,12.00
2023-02-18T01:04:02.973Z,12.02
2023-02-18T01:05:04.395Z,12.00
2023-02-18T01:06:06.693Z,11.99
2023-02-18T01:07:08.057Z,12.00
2023-02-18T01:08:10.044Z,12.00
2023-02-18T01:09:12.151Z,11.98
2023-02-18T01:10:13.965Z,11.95
2023-02-18T01:11:15.672Z,11.96
2023-02-18T01:12:16.961Z,12.01
2023-02-18T01:13:18.218Z,12.07
2023-02-18T01:14:19.431Z,12.04
2023-02-18T01:15:21.320Z,12.11
2023-02-18T01:16:22.630Z,12.13
2023-02-18T01:17:23.924Z,12.13
2023-02-18T01:18:25.863Z,12.21
2023-02-18T01:19:27.216Z,12.17
2023-02-18T01:20:28.462Z,12.14
2023-02-18T01:21:29.708Z,12.13
2023-02-18T01:22:30.959Z,12.12
2023-02-18T01:23:32.247Z,12.10
2023-02-18T01:24:33.512Z,12.13
2023-02-18T01:25:35.456Z,12.12
2023-02-18T01:26:36.691Z,12.12
2023-02-18T01:27:37.975Z,12.08
2023-02-18T01:28:40.083Z,12.05
2023-02-18T01:29:41.354Z,12.07
2023-02-18T01:30:42.615Z,12.10
2023-02-18T01:31:44.010Z,12.07
2023-02-18T01:32:45.693Z,12.06
2023-02-18T01:33:46.954Z,12.13
2023-02-18T01:34:48.172Z,12.11
2023-02-18T01:35:49.620Z,12.07
2023-02-18T01:36:50.926Z,12.03
2023-02-18T01:37:52.667Z,12.04
2023-02-18T01:38:53.898Z,12.07
2023-02-18T01:39:55.170Z,12.07
2023-02-18T01:40:56.382Z,12.06
2023-02-18T01:41:57.656Z,12.03
2023-02-18T01:42:58.950Z,12.00
2023-02-18T01:44:10.635Z,12.03
2023-02-18T01:45:35.388Z,12.02
2023-02-18T01:46:36.713Z,12.04
2023-02-18T01:47:37.974Z,12.04
2023-02-18T01:49:00.496Z,12.01
2023-02-18T01:50:01.721Z,11.99
2023-02-18T01:51:07.159Z,11.96
2023-02-18T01:52:11.464Z,11.93
2023-02-18T01:53:15.459Z,11.89
2023-02-18T01:54:19.353Z,11.86
2023-02-18T01:55:20.645Z,11.84
2023-02-18T01:56:27.697Z,11.86
2023-02-18T01:57:34.823Z,11.83
2023-02-18T01:58:37.587Z,11.81
2023-02-18T01:59:41.161Z,11.81
2023-02-18T02:00:42.423Z,11.83
2023-02-18T02:01:44.880Z,11.88
2023-02-18T02:02:47.047Z,11.86
2023-02-18T02:03:48.415Z,11.88
2023-02-18T02:04:50.030Z,11.87
2023-02-18T02:05:51.317Z,11.84
2023-02-18T02:06:52.568Z,11.81
2023-02-18T02:07:54.499Z,11.76
2023-02-18T02:08:57.783Z,11.74
2023-02-18T02:09:59.621Z,11.76
2023-02-18T02:11:04.836Z,11.77
2023-02-18T02:12:08.905Z,11.80
2023-02-18T02:13:17.360Z,11.80
2023-02-18T02:14:33.732Z,11.79
2023-02-18T02:15:41.904Z,11.84
2023-02-18T02:16:50.386Z,11.82
2023-02-18T02:18:10.409Z,11.83
2023-02-18T02:19:17.705Z,11.85
2023-02-18T02:20:18.933Z,11.86
2023-02-18T02:21:43.592Z,11.93
2023-02-18T02:23:00.843Z,11.96
2023-02-18T02:24:20.799Z,11.91
2023-02-18T02:25:40.033Z,11.89
2023-02-18T02:26:53.350Z,11.96
2023-02-18T02:28:14.680Z,11.97
2023-02-18T02:29:15.904Z,11.92
2023-02-18T02:30:23.384Z,11.94
2023-02-18T02:31:43.538Z,11.93
2023-02-18T02:32:55.419Z,11.95
2023-02-18T02:34:06.889Z,12.01
2023-02-18T02:35:11.120Z,12.01
2023-02-18T02:36:26.456Z,12.01
2023-02-18T02:37:33.380Z,11.97
2023-02-18T02:38:39.875Z,11.99
2023-02-18T02:39:41.082Z,12.06
2023-02-18T02:40:48.637Z,12.12
2023-02-18T02:41:58.639Z,12.15
2023-02-18T02:43:20.182Z,12.18
2023-02-18T02:44:32.269Z,12.15
2023-02-18T02:45:55.759Z,12.12
2023-02-18T02:47:00.523Z,12.12
2023-02-18T02:48:04.362Z,12.08
2023-02-18T02:49:28.155Z,12.07
2023-02-18T02:50:35.067Z,12.04
2023-02-18T02:51:41.300Z,12.06
2023-02-18T02:52:47.504Z,12.04
2023-02-18T02:53:48.886Z,12.00
2023-02-18T02:54:50.135Z,11.98
2023-02-18T02:55:51.465Z,12.14
2023-02-18T02:57:05.489Z,12.18
2023-02-18T02:58:06.888Z,12.16
2023-02-18T02:59:10.590Z,12.10
2023-02-18T03:00:16.952Z,12.09
2023-02-18T03:01:28.888Z,12.08
2023-02-18T03:02:36.201Z,12.08
2023-02-18T03:03:51.609Z,12.09
2023-02-18T03:05:15.611Z,12.09
2023-02-18T03:06:26.924Z,12.09
2023-02-18T03:07:28.205Z,12.17
2023-02-18T03:08:29.428Z,12.19
2023-02-18T03:09:40.076Z,12.14
2023-02-18T03:10:41.328Z,12.17
2023-02-18T03:12:02.854Z,12.15
2023-02-18T03:13:16.683Z,12.15
2023-02-18T03:14:34.873Z,12.17
2023-02-18T03:15:55.971Z,12.23
2023-02-18T03:17:05.447Z,12.25
2023-02-18T03:18:06.712Z,12.21
2023-02-18T03:19:08.036Z,12.21
2023-02-18T03:20:15.681Z,12.27
2023-02-18T03:21:29.258Z,12.24
2023-02-18T03:22:33.952Z,12.32
2023-02-18T03:23:41.889Z,12.35
2023-02-18T03:24:44.384Z,12.28
2023-02-18T03:25:49.882Z,12.27
2023-02-18T03:26:54.412Z,12.28
2023-02-18T03:27:58.023Z,12.21
2023-02-18T03:29:02.384Z,12.19
2023-02-18T03:30:03.991Z,12.15
2023-02-18T03:31:08.409Z,12.10
2023-02-18T03:32:12.852Z,12.04
2023-02-18T03:33:17.465Z,12.10
2023-02-18T03:34:23.251Z,12.05
2023-02-18T03:35:24.832Z,12.03
2023-02-18T03:36:27.160Z,12.01
2023-02-18T03:37:30.475Z,12.07
2023-02-18T03:38:36.400Z,12.04
2023-02-18T03:39:39.155Z,12.06
2023-02-18T03:40:40.527Z,12.13
2023-02-18T03:41:42.905Z,12.15
2023-02-18T03:42:44.360Z,12.16
2023-02-18T03:43:49.651Z,12.08
2023-02-18T03:44:50.897Z,12.02
2023-02-18T03:45:52.334Z,12.07
2023-02-18T03:46:53.936Z,11.99
2023-02-18T03:47:55.450Z,11.98
2023-02-18T03:48:58.351Z,11.92
2023-02-18T03:49:59.544Z,11.89
2023-02-18T03:51:00.773Z,11.83
2023-02-18T03:52:02.068Z,11.80
2023-02-18T03:53:03.307Z,11.83
2023-02-18T03:54:04.537Z,11.86
2023-02-18T03:55:06.053Z,11.84
2023-02-18T03:56:07.709Z,11.76
2023-02-18T03:57:09.283Z,11.75
2023-02-18T03:58:10.500Z,11.73
2023-02-18T03:59:12.318Z,11.68
2023-02-18T04:00:13.770Z,11.61
2023-02-18T04:01:15.238Z,11.54
2023-02-18T04:02:16.494Z,11.57
2023-02-18T04:03:17.681Z,11.53
2023-02-18T04:04:18.989Z,11.51
2023-02-18T04:05:20.289Z,11.48
2023-02-18T04:06:22.058Z,11.47
2023-02-18T04:07:23.340Z,11.48
2023-02-18T04:08:24.952Z,11.41
2023-02-18T04:09:26.822Z,11.41
2023-02-18T04:10:28.061Z,11.42
2023-02-18T04:11:29.332Z,11.42
2023-02-18T04:12:30.600Z,11.41
2023-02-18T04:13:31.925Z,11.42
2023-02-18T04:14:33.245Z,11.42
2023-02-18T04:15:34.470Z,11.46
2023-02-18T04:16:36.068Z,11.45
2023-02-18T04:17:37.300Z,11.42
2023-02-18T04:18:38.558Z,11.42
2023-02-18T04:19:39.772Z,11.39
2023-02-18T04:20:40.964Z,11.39
2023-02-18T04:21:42.232Z,11.50
2023-02-18T04:22:43.431Z,11.48
2023-02-18T04:23:44.664Z,11.52
2023-02-18T04:24:45.859Z,11.52
2023-02-18T04:25:47.130Z,11.54
2023-02-18T04:26:48.392Z,11.54
2023-02-18T04:27:49.616Z,11.54
2023-02-18T04:28:50.968Z,11.50
2023-02-18T04:29:52.430Z,11.45
2023-02-18T04:30:53.675Z,11.43
2023-02-18T04:31:54.925Z,11.46
2023-02-18T04:32:56.214Z,11.50
2023-02-18T04:33:57.423Z,11.48
2023-02-18T04:34:58.665Z,11.45
2023-02-18T04:35:59.896Z,11.40
2023-02-18T04:37:01.125Z,11.43
2023-02-18T04:38:03.149Z,11.45
2023-02-18T04:39:04.433Z,11.50
2023-02-18T04:40:06.081Z,11.48
2023-02-18T04:41:07.300Z,11.47
2023-02-18T04:42:08.504Z,11.49
2023-02-18T04:43:09.778Z,11.52
2023-02-18T04:44:11.037Z,11.50
2023-02-18T04:45:12.322Z,11.50
2023-02-18T04:46:13.698Z,11.50
2023-02-18T04:47:15.010Z,11.48
2023-02-18T04:48:16.372Z,11.49
2023-02-18T04:49:17.612Z,11.48
2023-02-18T04:50:19.481Z,11.56
2023-02-18T04:51:20.738Z,11.54
2023-02-18T04:52:21.986Z,11.51
2023-02-18T04:53:23.390Z,11.53
2023-02-18T04:54:27.547Z,11.55
2023-02-18T04:55:28.896Z,11.58
2023-02-18T04:56:30.111Z,11.60
2023-02-18T04:57:31.347Z,11.59
2023-02-18T04:58:32.633Z,11.55
2023-02-18T04:59:33.893Z,11.52
2023-02-18T05:00:35.171Z,11.47
2023-02-18T05:01:36.559Z,11.44
2023-02-18T05:02:37.822Z,11.42
2023-02-18T05:03:39.147Z,11.39
2023-02-18T05:04:40.492Z,11.34
2023-02-18T05:05:41.840Z,11.31
2023-02-18T05:06:43.881Z,11.30
2023-02-18T05:07:45.144Z,11.26
2023-02-18T05:08:46.394Z,11.25
2023-02-18T05:09:47.615Z,11.23
2023-02-18T05:10:48.945Z,11.20
2023-02-18T05:11:50.249Z,11.19
2023-02-18T05:12:51.576Z,11.20
2023-02-18T05:13:52.946Z,11.19
2023-02-18T05:14:54.239Z,11.19
2023-02-18T05:15:55.497Z,11.19
2023-02-18T05:16:56.856Z,11.21
2023-02-18T05:17:58.065Z,11.21
2023-02-18T05:18:59.317Z,11.20
2023-02-18T05:20:00.612Z,11.20
2023-02-18T05:21:01.812Z,11.20
2023-02-18T05:22:03.046Z,11.18
2023-02-18T05:23:04.397Z,11.16
2023-02-18T05:24:05.905Z,11.15
2023-02-18T05:25:07.227Z,11.13
2023-02-18T05:26:08.739Z,11.12
2023-02-18T05:27:10.102Z,11.09
2023-02-18T05:28:11.323Z,11.05
2023-02-18T05:29:12.867Z,11.01
2023-02-18T05:30:14.346Z,10.99
2023-02-18T05:31:15.622Z,10.99
2023-02-18T05:32:16.972Z,10.96
2023-02-18T05:33:18.247Z,10.93
2023-02-18T05:34:19.529Z,10.92
2023-02-18T05:35:20.781Z,10.88
2023-02-18T05:36:22.040Z,10.85
2023-02-18T05:37:23.294Z,10.84
2023-02-18T05:38:24.596Z,10.80
2023-02-18T05:39:25.793Z,10.79
2023-02-18T05:40:27.033Z,10.75
2023-02-18T05:41:28.368Z,10.76
2023-02-18T05:42:29.595Z,10.73
2023-02-18T05:43:30.891Z,10.70
2023-02-18T05:44:32.165Z,10.70
2023-02-18T05:45:33.398Z,10.67
2023-02-18T05:46:34.790Z,10.65
2023-02-18T05:47:36.013Z,10.62
2023-02-18T05:48:37.216Z,10.62
2023-02-18T05:49:39.178Z,10.61
2023-02-18T05:50:40.852Z,10.60
2023-02-18T05:51:42.122Z,10.57
2023-02-18T05:52:43.370Z,10.59
2023-02-18T05:53:44.577Z,10.58
2023-02-18T05:54:45.833Z,10.59
2023-02-18T05:55:47.047Z,10.55
2023-02-18T05:56:48.321Z,10.55
2023-02-18T05:57:49.864Z,10.56
2023-02-18T05:58:51.155Z,10.58
2023-02-18T05:59:52.359Z,10.55
2023-02-18T06:00:53.644Z,10.52
2023-02-18T06:01:55.140Z,10.50
2023-02-18T06:02:56.451Z,10.51
2023-02-18T06:03:57.695Z,10.57
2023-02-18T06:04:58.919Z,10.54
2023-02-18T06:06:00.212Z,10.62
2023-02-18T06:07:01.498Z,10.60
2023-02-18T06:08:02.751Z,10.58
2023-02-18T06:09:04.516Z,10.56
2023-02-18T06:10:06.222Z,10.54
2023-02-18T06:11:07.625Z,10.57
2023-02-18T06:12:08.934Z,10.57
2023-02-18T06:13:10.209Z,10.62
2023-02-18T06:14:11.624Z,10.62
2023-02-18T06:15:12.869Z,10.65
2023-02-18T06:16:14.194Z,10.65
2023-02-18T06:17:15.608Z,10.67
2023-02-18T06:18:16.992Z,10.66
2023-02-18T06:19:18.280Z,10.65
2023-02-18T06:20:19.665Z,10.61
2023-02-18T06:21:21.063Z,10.60
2023-02-18T06:22:22.339Z,10.58
2023-02-18T06:23:23.683Z,10.59
2023-02-18T06:24:24.918Z,10.59
2023-02-18T06:25:26.204Z,10.60
2023-02-18T06:26:27.405Z,10.60
2023-02-18T06:27:28.683Z,10.59
2023-02-18T06:28:29.899Z,10.59
2023-02-18T06:29:31.335Z,10.64
2023-02-18T06:30:32.824Z,10.64
2023-02-18T06:31:34.224Z,10.62
2023-02-18T06:32:35.636Z,10.64
2023-02-18T06:33:37.205Z,10.64
2023-02-18T06:34:38.476Z,10.67
2023-02-18T06:35:39.696Z,10.70
2023-02-18T06:36:40.923Z,10.69
2023-02-18T06:37:42.132Z,10.69
2023-02-18T06:38:44.265Z,10.68
2023-02-18T06:39:45.504Z,10.69
2023-02-18T06:40:47.188Z,10.65
2023-02-18T06:41:48.450Z,10.68
2023-02-18T06:42:49.732Z,10.69
2023-02-18T06:43:51.489Z,10.67
2023-02-18T06:44:52.763Z,10.68
2023-02-18T06:45:54.047Z,10.69
2023-02-18T06:46:55.355Z,10.69
2023-02-18T06:47:56.638Z,10.71
2023-02-18T06:48:57.932Z,10.71
2023-02-18T06:49:59.306Z,10.73
2023-02-18T06:51:00.616Z,10.75
2023-02-18T06:52:02.129Z,10.77
2023-02-18T06:53:03.614Z,10.80
2023-02-18T06:54:04.931Z,10.80
2023-02-18T06:55:07.244Z,10.83
2023-02-18T06:56:08.756Z,10.84
2023-02-18T06:57:10.207Z,10.86
2023-02-18T06:58:12.245Z,10.90
2023-02-18T06:59:13.507Z,10.92
2023-02-18T07:00:14.935Z,10.94
2023-02-18T07:01:16.223Z,10.99
2023-02-18T07:02:17.493Z,11.01
2023-02-18T07:03:18.789Z,11.05
2023-02-18T07:04:20.043Z,11.01
2023-02-18T07:05:21.318Z,11.02
2023-02-18T07:06:22.573Z,11.00
2023-02-18T07:07:23.825Z,11.02
2023-02-18T07:08:25.072Z,11.03
2023-02-18T07:09:26.369Z,11.02
2023-02-18T07:10:27.589Z,11.02
2023-02-18T07:11:28.836Z,11.03
2023-02-18T07:12:30.581Z,11.06
2023-02-18T07:13:31.810Z,11.09
2023-02-18T07:14:33.009Z,11.10
2023-02-18T07:15:34.268Z,11.12
2023-02-18T07:16:35.561Z,11.16
2023-02-18T07:17:36.889Z,11.20
2023-02-18T07:18:38.153Z,11.22
2023-02-18T07:19:39.388Z,11.22
2023-02-18T07:20:40.593Z,11.22
2023-02-18T07:21:42.052Z,11.19
2023-02-18T07:22:43.276Z,11.20
2023-02-18T07:23:44.556Z,11.18
2023-02-18T07:24:45.785Z,11.19
2023-02-18T07:25:47.113Z,11.20
2023-02-18T07:26:48.323Z,11.21
2023-02-18T07:27:49.814Z,11.19
2023-02-18T07:28:51.069Z,11.25
2023-02-18T07:29:52.322Z,11.30
2023-02-18T07:30:53.563Z,11.27
2023-02-18T07:31:54.890Z,11.23
2023-02-18T07:32:56.120Z,11.21
2023-02-18T07:33:57.376Z,11.20
2023-02-18T07:34:58.616Z,11.20
2023-02-18T07:36:00.619Z,11.20
2023-02-18T07:37:01.850Z,11.23
2023-02-18T07:38:03.110Z,11.24
2023-02-18T07:39:04.424Z,11.24
2023-02-18T07:40:06.133Z,11.30
2023-02-18T07:41:07.389Z,11.29
2023-02-18T07:42:09.351Z,11.32
2023-02-18T07:43:10.673Z,11.37
2023-02-18T07:44:11.985Z,11.38
2023-02-18T07:45:13.582Z,11.40
2023-02-18T07:46:15.016Z,11.41
2023-02-18T07:47:17.187Z,11.48
2023-02-18T07:48:18.515Z,11.48
2023-02-18T07:49:19.761Z,11.48
2023-02-18T07:50:21.022Z,11.49
2023-02-18T07:51:22.354Z,11.53
2023-02-18T07:52:23.557Z,11.56
2023-02-18T07:53:24.824Z,11.58
2023-02-18T07:54:26.121Z,11.69
2023-02-18T07:55:27.390Z,11.67
2023-02-18T07:56:28.712Z,11.67
2023-02-18T07:57:29.975Z,11.66
2023-02-18T07:58:32.231Z,11.67
2023-02-18T07:59:33.433Z,11.68
2023-02-18T08:00:34.640Z,11.68
2023-02-18T08:01:35.852Z,11.68
2023-02-18T08:02:37.090Z,11.68
2023-02-18T08:03:38.411Z,11.73
2023-02-18T08:04:39.610Z,11.72
2023-02-18T08:05:40.826Z,11.72
2023-02-18T08:06:46.298Z,11.73
2023-02-18T08:07:56.242Z,11.72
2023-02-18T08:09:06.087Z,11.75
2023-02-18T08:10:07.447Z,11.75
2023-02-18T08:11:18.579Z,11.75
2023-02-18T08:12:20.629Z,11.79
2023-02-18T08:13:21.980Z,11.80
2023-02-18T08:14:23.240Z,11.80
2023-02-18T08:15:24.480Z,11.81
2023-02-18T08:16:25.831Z,11.85
2023-02-18T08:17:27.052Z,11.84
2023-02-18T08:18:28.256Z,11.84
2023-02-18T08:19:29.519Z,11.85
2023-02-18T08:20:30.942Z,11.87
2023-02-18T08:21:32.180Z,11.90
2023-02-18T08:22:33.526Z,11.92
2023-02-18T08:23:34.942Z,11.92
2023-02-18T08:24:36.235Z,11.94
2023-02-18T08:25:37.495Z,11.95
2023-02-18T08:26:41.053Z,11.98
2023-02-18T08:27:47.319Z,12.07
2023-02-18T08:28:48.678Z,12.14
2023-02-18T08:29:49.944Z,12.22
2023-02-18T08:30:52.829Z,12.26
2023-02-18T08:31:54.192Z,12.28
2023-02-18T08:32:55.490Z,12.31
2023-02-18T08:33:57.572Z,12.36
2023-02-18T08:34:58.860Z,12.38
2023-02-18T08:36:00.087Z,12.41
2023-02-18T08:37:01.790Z,12.43
2023-02-18T08:38:03.064Z,12.47
2023-02-18T08:39:04.290Z,12.51
2023-02-18T08:40:06.206Z,12.54
2023-02-18T08:41:08.726Z,12.57
2023-02-18T08:42:10.141Z,12.57
2023-02-18T08:43:11.459Z,12.56
2023-02-18T08:44:12.707Z,12.57
2023-02-18T08:45:13.994Z,12.56
2023-02-18T08:46:16.647Z,12.60
2023-02-18T08:48:17.249Z,12.65
2023-02-18T08:48:47.364Z,12.69
2023-02-18T08:49:48.604Z,12.69
2023-02-18T08:50:49.842Z,12.72
2023-02-18T08:51:51.105Z,12.75
2023-02-18T08:52:52.949Z,12.81
2023-02-18T08:53:54.237Z,12.84
2023-02-18T08:54:55.494Z,12.87
2023-02-18T08:55:56.741Z,12.91
2023-02-18T08:56:58.017Z,12.93
2023-02-18T08:57:59.554Z,13.02
2023-02-18T08:59:00.816Z,13.02
2023-02-18T09:00:02.065Z,13.08
2023-02-18T09:01:08.307Z,13.08
2023-02-18T09:02:12.665Z,13.09
2023-02-18T09:03:14.582Z,13.10
2023-02-18T09:04:16.554Z,13.12
2023-02-18T09:05:17.859Z,13.11
2023-02-18T09:06:19.118Z,13.18
2023-02-18T09:07:20.332Z,13.19
2023-02-18T09:08:21.592Z,13.22
2023-02-18T09:09:23.077Z,13.21
2023-02-18T09:10:24.514Z,13.25
2023-02-18T09:11:25.891Z,13.28
2023-02-18T09:12:27.927Z,13.25
2023-02-18T09:13:29.164Z,13.23
2023-02-18T09:14:30.427Z,13.25
2023-02-18T09:15:31.648Z,13.27
2023-02-18T09:16:32.916Z,13.27
2023-02-18T09:17:34.209Z,13.29
2023-02-18T09:18:35.474Z,13.32
2023-02-18T09:19:36.855Z,13.32
2023-02-18T09:20:39.833Z,13.31
2023-02-18T09:21:41.087Z,13.34
2023-02-18T09:22:42.384Z,13.36
2023-02-18T09:23:43.663Z,13.38
2023-02-18T09:24:44.932Z,13.37
2023-02-18T09:25:46.173Z,13.40
2023-02-18T09:26:47.455Z,13.42
2023-02-18T09:27:48.750Z,13.49
2023-02-18T09:28:50.192Z,13.46
2023-02-18T09:29:51.551Z,13.43
2023-02-18T09:30:52.800Z,13.43
2023-02-18T09:31:54.184Z,13.45
2023-02-18T09:32:55.492Z,13.47
2023-02-18T09:33:57.985Z,13.52
2023-02-18T09:34:59.199Z,13.54
2023-02-18T09:36:01.284Z,13.61
2023-02-18T09:37:02.790Z,13.66
2023-02-18T09:38:04.104Z,13.70
2023-02-18T09:39:05.833Z,13.74
2023-02-18T09:40:07.524Z,13.76
2023-02-18T09:41:13.984Z,13.80
2023-02-18T09:42:17.236Z,13.81
2023-02-18T09:43:30.591Z,13.82
2023-02-18T09:44:36.833Z,13.82
2023-02-18T09:45:38.303Z,13.86
2023-02-18T09:46:40.632Z,13.93
2023-02-18T09:47:43.405Z,13.97
2023-02-18T09:48:46.621Z,13.96
2023-02-18T09:49:51.254Z,13.99
2023-02-18T09:50:52.600Z,13.97
2023-02-18T09:51:54.758Z,13.96
2023-02-18T09:52:58.318Z,13.94
2023-02-18T09:53:59.612Z,13.96
2023-02-18T09:55:20.829Z,13.99
2023-02-18T09:56:27.876Z,13.98
2023-02-18T09:57:36.913Z,14.04
2023-02-18T09:58:38.289Z,13.99
2023-02-18T09:59:39.767Z,13.98
2023-02-18T10:00:49.329Z,13.99
2023-02-18T10:01:52.379Z,13.97
2023-02-18T10:02:58.309Z,13.99
2023-02-18T10:04:01.859Z,14.00
2023-02-18T10:05:04.055Z,14.01
2023-02-18T10:06:07.781Z,14.07
2023-02-18T10:07:17.845Z,14.07
2023-02-18T10:08:29.896Z,14.08
2023-02-18T10:09:35.749Z,14.11
2023-02-18T10:10:39.554Z,14.10
2023-02-18T10:11:42.027Z,14.10
2023-02-18T10:12:43.299Z,14.22
2023-02-18T10:13:44.775Z,14.24
2023-02-18T10:14:56.271Z,14.23
2023-02-18T10:15:57.624Z,14.26
2023-02-18T10:16:59.864Z,14.22
2023-02-18T10:18:01.902Z,14.25
2023-02-18T10:19:18.362Z,14.27
2023-02-18T10:20:22.507Z,14.31
2023-02-18T10:21:28.900Z,14.33
2023-02-18T10:22:30.560Z,14.38
2023-02-18T10:23:34.060Z,14.40
2023-02-18T10:24:35.242Z,14.43
2023-02-18T10:25:38.070Z,14.47
2023-02-18T10:26:39.315Z,14.50
2023-02-18T10:27:40.771Z,14.45
2023-02-18T10:28:42.058Z,14.45
2023-02-18T10:29:43.344Z,14.52
2023-02-18T10:30:52.694Z,14.50
2023-02-18T10:31:56.246Z,14.46
2023-02-18T10:33:11.690Z,14.43
2023-02-18T10:34:24.597Z,14.46
2023-02-18T10:35:38.858Z,14.48
2023-02-18T10:36:40.096Z,14.50
2023-02-18T10:37:48.797Z,14.43
2023-02-18T10:39:04.943Z,14.43
2023-02-18T10:40:12.498Z,14.40
2023-02-18T10:41:19.064Z,14.36
2023-02-18T10:42:23.070Z,14.37
2023-02-18T10:43:47.247Z,14.36
2023-02-18T10:44:56.194Z,14.41
2023-02-18T10:46:03.306Z,14.44
2023-02-18T10:47:09.860Z,14.41
2023-02-18T10:48:11.228Z,14.48
2023-02-18T10:49:15.609Z,14.46
2023-02-18T10:50:25.076Z,14.55
2023-02-18T10:51:29.129Z,14.55
2023-02-18T10:52:33.298Z,14.59
2023-02-18T10:53:36.122Z,14.58
2023-02-18T10:54:57.556Z,14.67
2023-02-18T10:55:58.870Z,14.72
2023-02-18T10:57:00.545Z,14.78
2023-02-18T10:58:01.833Z,14.81
2023-02-18T10:59:16.625Z,14.85
2023-02-18T11:00:20.053Z,14.83
2023-02-18T11:01:21.794Z,14.88
2023-02-18T11:02:25.380Z,14.85
2023-02-18T11:03:27.433Z,14.81
2023-02-18T11:04:34.833Z,14.84
2023-02-18T11:05:36.667Z,14.87
2023-02-18T11:06:39.796Z,14.84
2023-02-18T11:07:41.156Z,14.88
2023-02-18T11:08:43.693Z,14.94
2023-02-18T11:10:01.964Z,15.04
2023-02-18T11:11:09.702Z,15.08
2023-02-18T11:12:17.125Z,15.10
2023-02-18T11:13:25.481Z,15.18
2023-02-18T11:14:40.836Z,15.13
2023-02-18T11:15:55.702Z,15.14
2023-02-18T11:17:07.399Z,15.19
2023-02-18T11:18:13.290Z,15.24
2023-02-18T11:19:32.861Z,15.19
2023-02-18T11:20:35.684Z,15.19
2023-02-18T11:21:38.040Z,15.19
2023-02-18T11:22:39.272Z,15.18
2023-02-18T11:23:48.736Z,15.17
2023-02-18T11:25:00.765Z,15.10
2023-02-18T11:26:04.580Z,15.12
2023-02-18T11:27:17.658Z,15.16
2023-02-18T11:28:18.873Z,15.15
2023-02-18T11:29:22.526Z,15.15
2023-02-18T11:30:26.442Z,15.06
2023-02-18T11:31:36.811Z,15.12
2023-02-18T11:32:38.165Z,15.10
2023-02-18T11:33:40.986Z,15.05
2023-02-18T11:34:43.116Z,15.12
2023-02-18T11:35:54.884Z,15.03
2023-02-18T11:37:07.526Z,14.97
2023-02-18T11:38:18.738Z,14.95
2023-02-18T11:39:24.284Z,14.90
2023-02-18T11:40:28.470Z,14.97
2023-02-18T11:41:32.541Z,14.91
2023-02-18T11:42:34.007Z,14.95
2023-02-18T11:43:35.322Z,14.83
2023-02-18T11:44:38.434Z,14.83
2023-02-18T11:45:39.720Z,14.82
2023-02-18T11:46:55.634Z,14.82
2023-02-18T11:48:01.051Z,14.80
2023-02-18T11:49:31.783Z,14.83
2023-02-18T11:50:33.549Z,14.79
2023-02-18T11:51:35.565Z,14.72
2023-02-18T11:52:39.259Z,14.73
2023-02-18T11:53:53.329Z,14.70
2023-02-18T11:55:02.432Z,14.71
2023-02-18T11:56:05.932Z,14.78
2023-02-18T11:57:11.527Z,14.83
2023-02-18T11:58:14.547Z,14.88
2023-02-18T11:59:15.776Z,14.88
2023-02-18T12:00:31.561Z,14.89
2023-02-18T12:01:37.877Z,14.94
2023-02-18T12:02:41.012Z,14.95
2023-02-18T12:03:42.265Z,15.01
2023-02-18T12:04:45.753Z,14.93
2023-02-18T12:05:47.978Z,14.89
2023-02-18T12:06:55.628Z,14.84
2023-02-18T12:07:59.564Z,14.79
2023-02-18T12:09:03.790Z,14.77
2023-02-18T12:10:12.457Z,14.74
2023-02-18T12:11:16.817Z,14.77
2023-02-18T12:12:29.955Z,14.81
2023-02-18T12:13:36.937Z,14.80
2023-02-18T12:14:38.563Z,14.87
2023-02-18T12:15:45.885Z,14.94
2023-02-18T12:17:05.830Z,14.91
2023-02-18T12:18:25.797Z,14.96
2023-02-18T12:19:29.732Z,14.97
2023-02-18T12:20:44.377Z,14.87
2023-02-18T12:21:58.149Z,14.90
2023-02-18T12:23:02.154Z,14.92
2023-02-18T12:24:29.523Z,14.89
2023-02-18T12:25:49.413Z,14.84
2023-02-18T12:27:01.497Z,14.84
2023-02-18T12:28:02.738Z,14.84
2023-02-18T12:29:12.051Z,14.75
2023-02-18T12:30:32.313Z,14.68
2023-02-18T12:31:46.480Z,14.62
2023-02-18T12:32:47.746Z,14.60
2023-02-18T12:34:07.587Z,14.65
2023-02-18T12:35:17.848Z,14.62
2023-02-18T12:36:31.402Z,14.61
2023-02-18T12:37:41.852Z,14.63
2023-02-18T12:38:51.938Z,14.62
2023-02-18T12:40:12.111Z,14.62
2023-02-18T12:41:26.756Z,14.61
2023-02-18T12:42:46.966Z,14.62
2023-02-18T12:43:48.209Z,14.55
2023-02-18T12:45:08.169Z,14.52
2023-02-18T12:46:21.182Z,14.50
2023-02-18T12:47:37.883Z,14.52
2023-02-18T12:48:52.872Z,14.50
2023-02-18T12:50:12.808Z,14.49
2023-02-18T12:51:17.117Z,14.51
2023-02-18T12:52:18.310Z,14.51
2023-02-18T12:53:25.317Z,14.50
2023-02-18T12:54:35.973Z,14.46
2023-02-18T12:55:56.168Z,14.40
2023-02-18T12:57:00.435Z,14.49
2023-02-18T12:58:22.324Z,14.47
2023-02-18T12:59:51.809Z,14.48
2023-02-18T13:01:11.687Z,14.61
2023-02-18T13:02:31.729Z,14.68
2023-02-18T13:03:47.029Z,14.63
2023-02-18T13:04:48.483Z,14.58
2023-02-18T13:06:12.820Z,14.61
2023-02-18T13:07:28.800Z,14.61
2023-02-18T13:08:41.817Z,14.59
2023-02-18T13:09:56.003Z,14.62
2023-02-18T13:10:57.205Z,14.57
2023-02-18T13:12:02.517Z,14.61
2023-02-18T13:13:16.178Z,14.53
2023-02-18T13:14:22.111Z,14.51
2023-02-18T13:15:28.461Z,14.46
2023-02-18T13:16:31.756Z,14.48
2023-02-18T13:17:35.511Z,14.50
2023-02-18T13:18:56.260Z,14.49
2023-02-18T13:20:03.054Z,14.55
2023-02-18T13:21:06.445Z,14.53
2023-02-18T13:22:10.271Z,14.53
2023-02-18T13:23:16.600Z,14.54
2023-02-18T13:24:24.383Z,14.60
2023-02-18T13:25:25.758Z,14.56
2023-02-18T13:26:28.884Z,14.57
2023-02-18T13:27:36.060Z,14.56
2023-02-18T13:29:01.999Z,14.59
2023-02-18T13:30:19.004Z,14.52
2023-02-18T13:31:39.337Z,14.51
2023-02-18T13:32:48.473Z,14.53
2023-02-18T13:34:00.778Z,14.50
2023-02-18T13:35:08.359Z,14.48
2023-02-18T13:36:18.604Z,14.47
2023-02-18T13:37:20.005Z,14.49
2023-02-18T13:38:48.472Z,14.52
2023-02-18T13:39:55.173Z,14.49
2023-02-18T13:40:58.128Z,14.50
2023-02-18T13:42:31.585Z,14.51
2023-02-18T13:43:33.859Z,14.55
2023-02-18T13:45:00.845Z,14.62
2023-02-18T13:46:10.226Z,14.62
2023-02-18T13:47:11.481Z,14.57
2023-02-18T13:48:22.835Z,14.55